Whiteman Air Force Base, Missouri
Current Conditions -  °F | °C
As of 4:58 AM on Sunday 21 Dec 2014 (Local Time) from KSZL Reporting Station
Overcast Overcast  
Wind Chill: 36°   Ceiling: 2100
Heat Index: 41°   Visibility: 10mi
Dew Point: 35°   Wind: 7mph
Humidity: 81%   Direction: 180°S
Pressure: 30.1"   Gusts: NA
Location:  38.7318°N, 93.5731°W
Report Text: KSZL 211058Z AUTO 18006KT 10SM OVC021 05/02 A3010 RMK AO2 SLP200 T00490019 $
Loading
Personal Weather Stations






























Interactive Weather Map New forecast layout! Learn more

10-Day Weather Forecast

Advertisements
Track Severe Weather on mobile